Niagara, Wisconsin
Current Conditions -  °F | °C
As of 3:54 AM on Sunday 26 Oct 2014 (Local Time) from KIMT Reporting Station
Clear Clear  
Wind Chill:   Ceiling: Unl
Heat Index:   Visibility: 10mi
Dew Point: -2°   Wind: 8mph
Humidity: 56%   Direction: 300°WNW
Pressure: 29.9"   Gusts: NA
Location:  45.77°N, 87.99°W
Report Text: KIMT 260854Z AUTO 30007KT 10SM CLR 06/M02 A2990 RMK AO2 SLP130 T00611022 51006
Loading
Personal Weather Stations






























Interactive Weather Map
Tropical Storm Tracking
New forecast layout! Learn more

10-Day Weather Forecast

Advertisements
Track Severe Weather on mobile